Time;durP1;ratioP1;P1;durP2;ratioP2;P2;SDS_P1;SDS_P2;PMS_P1;PMS_P2;Temp;Humidity;BMP_temperature;BMP_pressure;BME280_temperature;BME280_humidity;BME280_pressure;Samples;Min_cycle;Max_cycle;Signal;HPM_P1;HPM_P2
2022/08/16 00:01:36;;;;;;;5.60;2.95;;;;;;;;;;4979452;28;20502;-77
2022/08/16 00:04:02;;;;;;;3.47;2.80;;;;;;;;;;4984054;28;20030;-77
2022/08/16 00:06:28;;;;;;;2.90;2.60;;;;;;;;;;4978644;28;20031;-78
2022/08/16 00:08:54;;;;;;;3.20;2.88;;;;;;;;;;4979413;28;20053;-79
2022/08/16 00:11:21;;;;;;;3.17;2.80;;;;;;;;;;4975561;28;20033;-77
2022/08/16 00:13:48;;;;;;;4.65;3.08;;;;;;;;;;4974655;28;20027;-77
2022/08/16 00:16:14;;;;;;;3.17;2.70;;;;;;;;;;4981981;28;20078;-78
2022/08/16 00:18:40;;;;;;;4.18;3.05;;;;;;;;;;4981229;28;20023;-77
2022/08/16 00:21:06;;;;;;;4.65;2.63;;;;;;;;;;4977804;28;20030;-78
2022/08/16 00:23:33;;;;;;;4.07;2.85;;;;;;;;;;4974666;28;20531;-77
2022/08/16 00:25:59;;;;;;;4.28;2.70;;;;;;;;;;4974850;28;20038;-75
2022/08/16 00:28:26;;;;;;;4.13;2.50;;;;;;;;;;4974387;28;20117;-76
2022/08/16 00:30:52;;;;;;;3.47;2.72;;;;;;;;;;4983917;28;20502;-76
2022/08/16 00:33:18;;;;;;;2.90;2.40;;;;;;;;;;4968541;28;20134;-75
2022/08/16 00:35:45;;;;;;;4.07;3.03;;;;;;;;;;4972925;28;20110;-75
2022/08/16 00:38:12;;;;;;;2.95;2.60;;;;;;;;;;4968341;28;20027;-76
2022/08/16 00:40:44;;;;;;;5.22;3.00;;;;;;;;;;4965726;28;20283;-76
2022/08/16 00:43:12;;;;;;;4.10;3.17;;;;;;;;;;4977923;28;20027;-76
2022/08/16 00:45:45;;;;;;;4.13;3.00;;;;;;;;;;4969759;28;20027;-77
2022/08/16 00:48:13;;;;;;;5.95;3.28;;;;;;;;;;4972410;28;20037;-76
2022/08/16 00:50:40;;;;;;;4.28;3.22;;;;;;;;;;4969800;28;20037;-76
2022/08/16 00:53:08;;;;;;;4.90;2.70;;;;;;;;;;4971678;28;20081;-76
2022/08/16 00:55:35;;;;;;;4.82;3.92;;;;;;;;;;4969042;28;20088;-76
2022/08/16 00:58:01;;;;;;;3.97;3.33;;;;;;;;;;4979401;28;20034;-76
2022/08/16 01:00:29;;;;;;;5.13;3.45;;;;;;;;;;4975880;28;20019;-76
2022/08/16 01:02:56;;;;;;;4.97;2.88;;;;;;;;;;4973992;28;20034;-76
2022/08/16 01:05:22;;;;;;;5.82;3.10;;;;;;;;;;4968943;28;20054;-76
2022/08/16 01:07:48;;;;;;;4.82;3.42;;;;;;;;;;4974745;28;20035;-76
2022/08/16 01:10:14;;;;;;;3.92;3.00;;;;;;;;;;4967153;28;20042;-76
2022/08/16 01:12:40;;;;;;;6.55;3.65;;;;;;;;;;4965141;28;20505;-76
2022/08/16 01:15:07;;;;;;;4.57;3.30;;;;;;;;;;4973323;28;20033;-76
2022/08/16 01:17:34;;;;;;;4.07;3.20;;;;;;;;;;4973846;28;20367;-76
2022/08/16 01:20:02;;;;;;;5.20;3.20;;;;;;;;;;4972840;28;20173;-76
2022/08/16 01:22:31;;;;;;;3.83;3.30;;;;;;;;;;4969282;28;20054;-76
2022/08/16 01:24:59;;;;;;;4.65;3.17;;;;;;;;;;4972849;28;20038;-75
2022/08/16 01:27:29;;;;;;;4.85;4.07;;;;;;;;;;4977258;28;20041;-76
2022/08/16 01:30:02;;;;;;;5.30;3.80;;;;;;;;;;4976814;28;20386;-75
2022/08/16 01:32:29;;;;;;;5.10;3.88;;;;;;;;;;4968965;28;20437;-76
2022/08/16 01:34:55;;;;;;;6.50;3.42;;;;;;;;;;4975615;28;20018;-76
2022/08/16 01:37:21;;;;;;;5.38;3.60;;;;;;;;;;4969627;28;20334;-76
2022/08/16 01:39:50;;;;;;;6.25;3.95;;;;;;;;;;4976511;28;20047;-76
2022/08/16 01:42:17;;;;;;;4.85;3.30;;;;;;;;;;4968014;28;20035;-76
2022/08/16 01:44:43;;;;;;;4.43;3.40;;;;;;;;;;4963608;28;20158;-76
2022/08/16 01:47:09;;;;;;;4.80;3.28;;;;;;;;;;4966583;28;20034;-76
2022/08/16 01:49:43;;;;;;;7.05;3.05;;;;;;;;;;4967965;28;20023;-76
2022/08/16 01:52:11;;;;;;;6.70;3.22;;;;;;;;;;4973749;28;20026;-77
2022/08/16 01:54:38;;;;;;;3.53;2.83;;;;;;;;;;4970759;28;20385;-77
2022/08/16 01:57:05;;;;;;;4.60;3.38;;;;;;;;;;4975027;28;20369;-76
2022/08/16 01:59:32;;;;;;;4.38;3.38;;;;;;;;;;4969039;28;20026;-77
2022/08/16 02:01:59;;;;;;;4.78;3.60;;;;;;;;;;4976633;28;20143;-78
2022/08/16 02:04:26;;;;;;;4.35;3.15;;;;;;;;;;4968733;28;20038;-78
2022/08/16 02:06:52;;;;;;;5.00;3.10;;;;;;;;;;4971874;28;20118;-78
2022/08/16 02:09:21;;;;;;;3.80;3.10;;;;;;;;;;4968499;28;20086;-79
2022/08/16 02:11:49;;;;;;;4.10;3.20;;;;;;;;;;4974530;28;20169;-78
2022/08/16 02:14:15;;;;;;;6.60;4.10;;;;;;;;;;4977577;28;20018;-77
2022/08/16 02:16:43;;;;;;;10.40;3.78;;;;;;;;;;4972325;28;20027;-78
2022/08/16 02:19:10;;;;;;;5.72;2.97;;;;;;;;;;4986695;28;20049;-77
2022/08/16 02:21:36;;;;;;;5.13;3.53;;;;;;;;;;4970695;28;20145;-78
2022/08/16 02:24:02;;;;;;;7.72;3.47;;;;;;;;;;4978033;28;20113;-78
2022/08/16 02:26:28;;;;;;;4.30;3.22;;;;;;;;;;4968457;28;20030;-79
2022/08/16 02:28:55;;;;;;;5.68;3.13;;;;;;;;;;4969020;28;20049;-77
2022/08/16 02:31:21;;;;;;;4.22;3.22;;;;;;;;;;4977142;28;20019;-78
2022/08/16 02:33:47;;;;;;;4.50;3.15;;;;;;;;;;4965219;28;20027;-77
2022/08/16 02:36:18;;;;;;;4.97;2.92;;;;;;;;;;4968764;28;20030;-77
2022/08/16 02:38:44;;;;;;;6.38;2.90;;;;;;;;;;4963167;28;20394;-76
2022/08/16 02:41:10;;;;;;;4.93;2.92;;;;;;;;;;4972132;28;20026;-78
2022/08/16 02:43:37;;;;;;;5.53;2.83;;;;;;;;;;4968559;28;20066;-78
2022/08/16 02:46:03;;;;;;;8.48;3.30;;;;;;;;;;4967975;28;20450;-78
2022/08/16 02:48:30;;;;;;;5.93;3.10;;;;;;;;;;4971063;28;20046;-78
2022/08/16 02:51:01;;;;;;;4.15;2.55;;;;;;;;;;4962670;28;20085;-78
2022/08/16 02:53:27;;;;;;;5.28;3.53;;;;;;;;;;4968667;28;20039;-78
2022/08/16 02:55:53;;;;;;;4.88;2.75;;;;;;;;;;4968126;28;20019;-78
2022/08/16 02:58:22;;;;;;;3.92;3.28;;;;;;;;;;4967777;28;20031;-78
2022/08/16 03:00:48;;;;;;;5.78;2.58;;;;;;;;;;4965753;28;20186;-78
2022/08/16 03:03:14;;;;;;;6.05;2.75;;;;;;;;;;4967561;28;20031;-76
2022/08/16 03:05:40;;;;;;;3.92;3.03;;;;;;;;;;4976080;28;20517;-77
2022/08/16 03:08:08;;;;;;;6.60;2.70;;;;;;;;;;4964827;28;20062;-79
2022/08/16 03:10:34;;;;;;;7.38;3.08;;;;;;;;;;4961568;28;20051;-78
2022/08/16 03:13:00;;;;;;;3.67;2.33;;;;;;;;;;4972871;28;20025;-77
2022/08/16 03:15:27;;;;;;;3.95;2.83;;;;;;;;;;4973746;28;20163;-75
2022/08/16 03:17:53;;;;;;;6.22;2.90;;;;;;;;;;4968874;28;20019;-78
2022/08/16 03:20:19;;;;;;;6.78;3.08;;;;;;;;;;4972139;28;20390;-77
2022/08/16 03:22:45;;;;;;;2.80;2.35;;;;;;;;;;4963839;28;20059;-78
2022/08/16 03:25:14;;;;;;;7.03;3.22;;;;;;;;;;4972034;28;20031;-77
2022/08/16 03:27:40;;;;;;;4.32;2.80;;;;;;;;;;4967744;28;20068;-77
2022/08/16 03:30:14;;;;;;;5.25;2.50;;;;;;;;;;4966586;28;20046;-77
2022/08/16 03:32:40;;;;;;;5.47;2.63;;;;;;;;;;4979093;28;20030;-77
2022/08/16 03:35:07;;;;;;;4.07;2.17;;;;;;;;;;4969863;28;20030;-77
2022/08/16 03:37:34;;;;;;;6.22;2.90;;;;;;;;;;4969102;28;20106;-77
2022/08/16 03:40:00;;;;;;;5.13;2.50;;;;;;;;;;4968172;28;20043;-77
2022/08/16 03:42:26;;;;;;;8.20;3.50;;;;;;;;;;4968025;28;20101;-76
2022/08/16 03:44:52;;;;;;;6.57;2.80;;;;;;;;;;4973860;28;20113;-77
2022/08/16 03:47:18;;;;;;;4.13;2.75;;;;;;;;;;4971821;28;20515;-77
2022/08/16 03:49:46;;;;;;;4.88;2.50;;;;;;;;;;4973854;28;20581;-77
2022/08/16 03:52:12;;;;;;;6.68;2.60;;;;;;;;;;4977602;28;20034;-77
2022/08/16 03:54:38;;;;;;;8.32;3.17;;;;;;;;;;4967848;28;20023;-77
2022/08/16 03:57:04;;;;;;;5.20;2.35;;;;;;;;;;4963847;28;20047;-77
2022/08/16 03:59:31;;;;;;;6.05;2.78;;;;;;;;;;4966011;28;20038;-77
2022/08/16 04:01:58;;;;;;;6.53;2.42;;;;;;;;;;4967176;28;20050;-77
2022/08/16 04:04:24;;;;;;;3.88;2.50;;;;;;;;;;4969669;28;20038;-77
2022/08/16 04:06:51;;;;;;;6.05;2.50;;;;;;;;;;4966907;28;20034;-78
2022/08/16 04:09:17;;;;;;;4.53;2.72;;;;;;;;;;4967078;28;20050;-77
2022/08/16 04:11:43;;;;;;;3.65;3.22;;;;;;;;;;4959431;28;20055;-77
2022/08/16 04:14:09;;;;;;;3.00;2.42;;;;;;;;;;4972350;28;20026;-79
2022/08/16 04:16:35;;;;;;;4.57;2.20;;;;;;;;;;4976513;28;20023;-77
2022/08/16 04:19:02;;;;;;;8.25;2.50;;;;;;;;;;4967477;28;20038;-77
2022/08/16 04:21:29;;;;;;;4.43;2.53;;;;;;;;;;4972006;28;20019;-77
2022/08/16 04:23:56;;;;;;;5.70;2.80;;;;;;;;;;4972090;28;20150;-77
2022/08/16 04:26:22;;;;;;;5.22;2.50;;;;;;;;;;4971613;28;20035;-78
2022/08/16 04:28:48;;;;;;;8.23;3.72;;;;;;;;;;4971788;28;20389;-77
2022/08/16 04:31:14;;;;;;;6.30;3.47;;;;;;;;;;4970472;28;20026;-77
2022/08/16 04:33:40;;;;;;;3.92;2.40;;;;;;;;;;4970013;28;20145;-77
2022/08/16 04:36:06;;;;;;;6.93;2.28;;;;;;;;;;4968248;28;20027;-77
2022/08/16 04:38:33;;;;;;;6.63;2.90;;;;;;;;;;4970658;28;20568;-77
2022/08/16 04:40:59;;;;;;;4.90;3.03;;;;;;;;;;4968265;28;20382;-77
2022/08/16 04:43:25;;;;;;;5.70;2.50;;;;;;;;;;4971199;28;20030;-77
2022/08/16 04:45:51;;;;;;;4.45;2.22;;;;;;;;;;4973605;28;20367;-76
2022/08/16 04:48:17;;;;;;;4.75;3.13;;;;;;;;;;4977002;28;20394;-77
2022/08/16 04:50:44;;;;;;;4.10;2.60;;;;;;;;;;4970127;28;20035;-77
2022/08/16 04:53:10;;;;;;;8.50;2.97;;;;;;;;;;4970495;28;20023;-77
2022/08/16 04:55:37;;;;;;;3.45;2.13;;;;;;;;;;4969461;28;20019;-77
2022/08/16 04:58:03;;;;;;;7.55;3.13;;;;;;;;;;4977826;28;20015;-77
2022/08/16 05:00:32;;;;;;;5.13;2.28;;;;;;;;;;4968233;28;20031;-77
2022/08/16 05:02:59;;;;;;;4.47;2.20;;;;;;;;;;4968790;28;20030;-76
2022/08/16 05:05:25;;;;;;;4.32;2.72;;;;;;;;;;4965823;28;20062;-77
2022/08/16 05:07:51;;;;;;;5.55;2.17;;;;;;;;;;4972976;28;20031;-76
2022/08/16 05:10:18;;;;;;;5.40;2.42;;;;;;;;;;4971534;28;20780;-77
2022/08/16 05:12:44;;;;;;;7.78;2.28;;;;;;;;;;4967359;28;20039;-77
2022/08/16 05:15:10;;;;;;;4.28;2.75;;;;;;;;;;4965213;28;20019;-77
2022/08/16 05:17:37;;;;;;;3.85;2.25;;;;;;;;;;4964022;28;20033;-78
2022/08/16 05:20:04;;;;;;;3.88;1.92;;;;;;;;;;4985035;28;20134;-78
2022/08/16 05:22:30;;;;;;;5.88;2.25;;;;;;;;;;4967180;28;20031;-77
2022/08/16 05:24:56;;;;;;;4.43;2.30;;;;;;;;;;4972242;28;20021;-77
2022/08/16 05:27:22;;;;;;;3.78;2.25;;;;;;;;;;4972921;28;20081;-76
2022/08/16 05:29:48;;;;;;;3.67;2.45;;;;;;;;;;4974450;28;20039;-77
2022/08/16 05:32:14;;;;;;;2.70;2.10;;;;;;;;;;4973431;28;20033;-77
2022/08/16 05:34:40;;;;;;;6.68;2.30;;;;;;;;;;4973960;28;20111;-76
2022/08/16 05:37:07;;;;;;;2.88;1.90;;;;;;;;;;4967150;28;20023;-77
2022/08/16 05:39:33;;;;;;;3.95;2.50;;;;;;;;;;4964094;28;20039;-77
2022/08/16 05:41:59;;;;;;;5.18;2.53;;;;;;;;;;4968387;28;20089;-77
2022/08/16 05:44:25;;;;;;;6.70;2.10;;;;;;;;;;4974115;28;20037;-76
2022/08/16 05:46:55;;;;;;;4.70;2.50;;;;;;;;;;4971638;28;20026;-77
2022/08/16 05:49:21;;;;;;;6.10;2.70;;;;;;;;;;4969559;28;20093;-78
2022/08/16 05:51:48;;;;;;;2.83;2.30;;;;;;;;;;4970551;28;20105;-77
2022/08/16 05:54:18;;;;;;;5.60;2.20;;;;;;;;;;4968758;28;20143;-77
2022/08/16 05:56:47;;;;;;;6.30;2.85;;;;;;;;;;4976212;28;20469;-77
2022/08/16 05:59:14;;;;;;;3.80;2.25;;;;;;;;;;4970153;28;20019;-77
2022/08/16 06:01:43;;;;;;;4.25;2.00;;;;;;;;;;4964499;28;20026;-76
2022/08/16 06:04:10;;;;;;;3.78;2.08;;;;;;;;;;4967749;28;20437;-77
2022/08/16 06:06:36;;;;;;;4.72;2.30;;;;;;;;;;4971531;28;20031;-79
2022/08/16 06:09:03;;;;;;;3.50;2.00;;;;;;;;;;4973180;28;20038;-78
2022/08/16 06:11:29;;;;;;;4.47;2.38;;;;;;;;;;4972272;28;20085;-79
2022/08/16 06:13:56;;;;;;;3.83;2.17;;;;;;;;;;4978113;28;20114;-79
2022/08/16 06:16:22;;;;;;;4.32;2.08;;;;;;;;;;4973345;28;20027;-78
2022/08/16 06:18:48;;;;;;;7.03;2.42;;;;;;;;;;4979708;28;20438;-78
2022/08/16 06:21:15;;;;;;;3.95;2.28;;;;;;;;;;4975638;28;20027;-79
2022/08/16 06:23:41;;;;;;;2.85;2.33;;;;;;;;;;4970360;28;20027;-79
2022/08/16 06:26:07;;;;;;;4.68;2.10;;;;;;;;;;4972467;28;20477;-77
2022/08/16 06:28:34;;;;;;;3.92;1.90;;;;;;;;;;4976938;28;20034;-78
2022/08/16 06:31:00;;;;;;;3.72;2.08;;;;;;;;;;4986383;28;20034;-78
2022/08/16 06:33:26;;;;;;;3.30;2.38;;;;;;;;;;4968980;28;20046;-77
2022/08/16 06:35:55;;;;;;;3.22;2.30;;;;;;;;;;4984127;28;20030;-78
2022/08/16 06:38:21;;;;;;;4.22;2.28;;;;;;;;;;4975470;28;20033;-78
2022/08/16 06:40:48;;;;;;;3.88;2.50;;;;;;;;;;4972704;28;20023;-79
2022/08/16 06:43:14;;;;;;;2.95;2.28;;;;;;;;;;4976674;28;20022;-78
2022/08/16 06:45:41;;;;;;;3.25;2.10;;;;;;;;;;4966203;28;20037;-78
2022/08/16 06:48:08;;;;;;;5.68;2.78;;;;;;;;;;4970618;28;20034;-78
2022/08/16 06:50:34;;;;;;;8.55;2.38;;;;;;;;;;4970502;28;20454;-79
2022/08/16 06:53:01;;;;;;;4.25;2.22;;;;;;;;;;4971341;28;20062;-79
2022/08/16 06:55:28;;;;;;;3.53;1.98;;;;;;;;;;4966271;28;20088;-78
2022/08/16 06:57:54;;;;;;;4.70;2.10;;;;;;;;;;4969285;28;20404;-78
2022/08/16 07:00:20;;;;;;;3.22;2.13;;;;;;;;;;4975745;28;20497;-78
2022/08/16 07:02:47;;;;;;;7.53;2.80;;;;;;;;;;4969771;28;20378;-79
2022/08/16 07:05:14;;;;;;;6.57;2.60;;;;;;;;;;4971203;28;20504;-79
2022/08/16 07:07:41;;;;;;;4.22;2.08;;;;;;;;;;4975166;28;20047;-79
2022/08/16 07:10:08;;;;;;;4.07;2.85;;;;;;;;;;4971286;28;20054;-78
2022/08/16 07:12:34;;;;;;;3.97;2.05;;;;;;;;;;4966269;28;20035;-78
2022/08/16 07:15:03;;;;;;;3.40;2.60;;;;;;;;;;4976000;28;20026;-77
2022/08/16 07:17:31;;;;;;;4.03;2.25;;;;;;;;;;4966764;28;20019;-76
2022/08/16 07:19:57;;;;;;;4.38;2.30;;;;;;;;;;4966012;28;20029;-77
2022/08/16 07:22:23;;;;;;;2.90;1.95;;;;;;;;;;4975866;28;20034;-77
2022/08/16 07:24:49;;;;;;;5.75;2.42;;;;;;;;;;4965633;28;20073;-78
2022/08/16 07:27:15;;;;;;;5.80;2.30;;;;;;;;;;4967758;28;20026;-77
2022/08/16 07:29:42;;;;;;;3.83;2.10;;;;;;;;;;4966487;28;20034;-77
2022/08/16 07:32:08;;;;;;;6.35;2.50;;;;;;;;;;4972582;28;20114;-78
2022/08/16 07:34:34;;;;;;;4.82;2.13;;;;;;;;;;4970664;28;20031;-80
2022/08/16 07:37:03;;;;;;;5.13;2.28;;;;;;;;;;4968018;28;20027;-78
2022/08/16 07:39:29;;;;;;;3.78;2.00;;;;;;;;;;4973311;28;20066;-78
2022/08/16 07:41:55;;;;;;;3.28;2.60;;;;;;;;;;4968797;28;20093;-79
2022/08/16 07:44:21;;;;;;;3.05;2.08;;;;;;;;;;4987923;28;20030;-79
2022/08/16 07:46:47;;;;;;;4.75;2.22;;;;;;;;;;4972071;28;20050;-78
2022/08/16 07:49:13;;;;;;;5.53;2.75;;;;;;;;;;4976568;28;20015;-79
2022/08/16 07:51:40;;;;;;;8.65;2.60;;;;;;;;;;4975683;28;20078;-78
2022/08/16 07:54:07;;;;;;;3.00;2.10;;;;;;;;;;4975294;28;20031;-79
2022/08/16 07:56:33;;;;;;;6.90;2.38;;;;;;;;;;4981123;28;20058;-79
2022/08/16 07:59:00;;;;;;;4.80;2.20;;;;;;;;;;4974083;28;20029;-79
2022/08/16 08:01:27;;;;;;;4.40;1.98;;;;;;;;;;4975302;28;20019;-81
2022/08/16 08:03:53;;;;;;;4.85;2.10;;;;;;;;;;4977235;28;20516;-79
2022/08/16 08:06:22;;;;;;;7.68;2.47;;;;;;;;;;4975060;28;20042;-78
2022/08/16 08:08:49;;;;;;;5.78;2.35;;;;;;;;;;4974630;28;20133;-78
2022/08/16 08:11:15;;;;;;;4.75;2.20;;;;;;;;;;4993663;28;20050;-76
2022/08/16 08:13:42;;;;;;;4.15;2.42;;;;;;;;;;4986282;28;20031;-77
2022/08/16 08:16:09;;;;;;;3.28;2.28;;;;;;;;;;4990073;28;20027;-77
2022/08/16 08:18:35;;;;;;;5.10;2.85;;;;;;;;;;4978947;28;20113;-77
2022/08/16 08:21:02;;;;;;;4.05;2.15;;;;;;;;;;4990886;28;20023;-77
2022/08/16 08:23:28;;;;;;;3.47;2.92;;;;;;;;;;4995590;28;20034;-78
2022/08/16 08:25:54;;;;;;;4.43;2.83;;;;;;;;;;5004617;28;20072;-78
2022/08/16 08:28:20;;;;;;;6.70;2.58;;;;;;;;;;5005462;28;20038;-77
2022/08/16 08:30:46;;;;;;;3.92;2.28;;;;;;;;;;4987864;28;20026;-78
2022/08/16 08:33:12;;;;;;;3.92;2.35;;;;;;;;;;4995763;28;20055;-77
2022/08/16 08:35:39;;;;;;;4.28;2.25;;;;;;;;;;4984757;28;20031;-77
2022/08/16 08:38:07;;;;;;;2.50;2.13;;;;;;;;;;4975953;28;20045;-78
2022/08/16 08:40:34;;;;;;;4.00;2.00;;;;;;;;;;4972478;28;20417;-78
2022/08/16 08:43:00;;;;;;;4.75;2.33;;;;;;;;;;4972648;28;20449;-79
2022/08/16 08:45:26;;;;;;;8.13;3.00;;;;;;;;;;4974133;28;20035;-78
2022/08/16 08:47:56;;;;;;;3.65;2.10;;;;;;;;;;4972696;28;20042;-78
2022/08/16 08:50:22;;;;;;;6.13;2.22;;;;;;;;;;4971488;28;20045;-79
2022/08/16 08:52:50;;;;;;;4.93;2.20;;;;;;;;;;4971806;28;20027;-78
2022/08/16 08:55:21;;;;;;;5.72;2.40;;;;;;;;;;4971343;28;20441;-79
2022/08/16 08:57:48;;;;;;;4.50;2.20;;;;;;;;;;4969527;28;20117;-78
2022/08/16 09:00:16;;;;;;;4.55;2.40;;;;;;;;;;4985965;28;20027;-77
2022/08/16 09:02:43;;;;;;;4.15;2.08;;;;;;;;;;4972179;28;20066;-78
2022/08/16 09:05:09;;;;;;;4.75;2.20;;;;;;;;;;4972101;28;20034;-77
2022/08/16 09:07:36;;;;;;;3.40;2.10;;;;;;;;;;4975259;28;20053;-79
2022/08/16 09:10:04;;;;;;;5.68;2.40;;;;;;;;;;4980752;28;20057;-77
2022/08/16 09:12:30;;;;;;;2.90;1.98;;;;;;;;;;4968631;28;20043;-78
2022/08/16 09:14:56;;;;;;;4.50;2.38;;;;;;;;;;4985039;28;20050;-77
2022/08/16 09:17:23;;;;;;;3.83;1.90;;;;;;;;;;4990892;28;20390;-78
2022/08/16 09:19:50;;;;;;;2.90;2.00;;;;;;;;;;4992284;28;20015;-78
2022/08/16 09:22:17;;;;;;;3.50;2.53;;;;;;;;;;4988565;28;20171;-77
2022/08/16 09:24:43;;;;;;;5.43;2.47;;;;;;;;;;4986871;28;20110;-80
2022/08/16 09:27:09;;;;;;;4.55;2.30;;;;;;;;;;4990226;28;20090;-79
2022/08/16 09:29:35;;;;;;;3.88;2.08;;;;;;;;;;4989583;28;20100;-79
2022/08/16 09:32:03;;;;;;;2.80;2.00;;;;;;;;;;4985796;28;20031;-79
2022/08/16 09:34:29;;;;;;;4.05;2.22;;;;;;;;;;4985079;28;20049;-79
2022/08/16 09:36:56;;;;;;;4.97;2.00;;;;;;;;;;4987746;28;20086;-79
2022/08/16 09:39:23;;;;;;;5.07;2.30;;;;;;;;;;4984697;28;20039;-78
2022/08/16 09:41:50;;;;;;;4.72;2.20;;;;;;;;;;4982732;28;20073;-78
2022/08/16 09:44:19;;;;;;;3.90;2.17;;;;;;;;;;5006578;28;20034;-78
2022/08/16 09:46:45;;;;;;;6.10;2.00;;;;;;;;;;4991916;28;20023;-78
2022/08/16 09:49:12;;;;;;;3.42;2.47;;;;;;;;;;4988592;28;20082;-79
2022/08/16 09:54:42;;;;;;;2.70;2.15;;;;;;;;;;4989097;28;20065;-78
2022/08/16 09:57:08;;;;;;;3.13;2.03;;;;;;;;;;4987627;28;20038;-80
2022/08/16 09:59:34;;;;;;;3.40;1.73;;;;;;;;;;4994219;28;20095;-76
2022/08/16 10:02:01;;;;;;;4.00;2.03;;;;;;;;;;5004361;28;20469;-79
2022/08/16 10:04:27;;;;;;;2.25;2.03;;;;;;;;;;4988562;28;20082;-78
2022/08/16 10:06:55;;;;;;;3.05;2.25;;;;;;;;;;4988183;28;20023;-77
2022/08/16 10:09:22;;;;;;;3.63;1.92;;;;;;;;;;4993718;28;20042;-81
2022/08/16 10:14:34;;;;;;;8.55;2.92;;;;;;;;;;4985278;28;20109;-82
2022/08/16 10:17:01;;;;;;;5.43;2.20;;;;;;;;;;4978347;28;20022;-83
2022/08/16 10:19:27;;;;;;;4.50;2.13;;;;;;;;;;4983600;28;20061;-78
2022/08/16 10:21:54;;;;;;;4.15;2.13;;;;;;;;;;5009686;28;20144;-78
2022/08/16 10:24:20;;;;;;;4.13;2.20;;;;;;;;;;4993809;28;20027;-77
2022/08/16 10:26:46;;;;;;;3.13;2.08;;;;;;;;;;4987863;28;20035;-77
2022/08/16 10:29:13;;;;;;;2.97;1.83;;;;;;;;;;4987494;28;20091;-77
2022/08/16 10:31:39;;;;;;;3.60;2.00;;;;;;;;;;5019037;28;20029;-76
2022/08/16 10:34:05;;;;;;;5.93;2.47;;;;;;;;;;4989625;28;20035;-78
2022/08/16 10:36:32;;;;;;;4.93;2.13;;;;;;;;;;4987448;28;20037;-79
2022/08/16 10:38:58;;;;;;;4.47;2.00;;;;;;;;;;4987193;28;20023;-76
2022/08/16 10:41:24;;;;;;;3.05;1.88;;;;;;;;;;4987905;28;20552;-76
2022/08/16 10:43:50;;;;;;;5.72;3.20;;;;;;;;;;4988046;28;20023;-77
2022/08/16 10:46:16;;;;;;;2.83;1.80;;;;;;;;;;4988049;28;20102;-77
2022/08/16 10:48:43;;;;;;;2.58;1.92;;;;;;;;;;4986498;28;20502;-76
2022/08/16 10:51:10;;;;;;;4.55;2.00;;;;;;;;;;4987351;28;20078;-78
2022/08/16 10:53:36;;;;;;;4.57;2.00;;;;;;;;;;4989717;28;20461;-78
2022/08/16 10:56:04;;;;;;;3.10;2.08;;;;;;;;;;4987831;28;20035;-78
2022/08/16 10:58:32;;;;;;;3.50;2.00;;;;;;;;;;4971001;28;20031;-78
2022/08/16 11:00:58;;;;;;;3.75;2.10;;;;;;;;;;4994137;28;20176;-80
2022/08/16 11:03:25;;;;;;;5.18;2.40;;;;;;;;;;4984500;28;20027;-85
2022/08/16 11:05:51;;;;;;;2.65;2.20;;;;;;;;;;4980340;28;20034;-81
2022/08/16 11:08:17;;;;;;;2.50;2.00;;;;;;;;;;4985937;28;20023;-83
2022/08/16 11:10:44;;;;;;;3.72;2.20;;;;;;;;;;4978155;28;20049;-84
2022/08/16 11:13:19;;;;;;;4.00;1.98;;;;;;;;;;4981912;28;20026;-82
2022/08/16 11:15:45;;;;;;;2.72;1.90;;;;;;;;;;4979583;28;20031;-81
2022/08/16 11:18:11;;;;;;;5.65;2.10;;;;;;;;;;4977695;28;20034;-80
2022/08/16 11:20:38;;;;;;;5.55;1.95;;;;;;;;;;4978584;28;20043;-83
2022/08/16 11:23:04;;;;;;;3.47;1.88;;;;;;;;;;4969461;28;20027;-82
2022/08/16 11:25:31;;;;;;;2.75;2.50;;;;;;;;;;4974773;28;20073;-86
2022/08/16 11:27:58;;;;;;;2.97;2.00;;;;;;;;;;4974399;28;20073;-78
2022/08/16 11:30:25;;;;;;;3.75;2.80;;;;;;;;;;4974514;28;20465;-82
2022/08/16 11:32:51;;;;;;;3.65;2.22;;;;;;;;;;4974260;28;20118;-83
2022/08/16 11:35:19;;;;;;;2.38;2.00;;;;;;;;;;4970923;28;20033;-83
2022/08/16 11:37:49;;;;;;;3.55;2.00;;;;;;;;;;4975917;28;20093;-80
2022/08/16 11:40:16;;;;;;;2.08;1.83;;;;;;;;;;4980079;28;20029;-80
2022/08/16 11:42:42;;;;;;;4.18;1.75;;;;;;;;;;4979680;28;20142;-80
2022/08/16 11:45:09;;;;;;;2.72;1.90;;;;;;;;;;4974460;28;20027;-85
2022/08/16 11:47:36;;;;;;;3.63;2.15;;;;;;;;;;4979187;28;20465;-86
2022/08/16 11:50:07;;;;;;;2.72;1.92;;;;;;;;;;4976391;28;20025;-81
2022/08/16 11:52:34;;;;;;;2.83;1.80;;;;;;;;;;4979808;28;20332;-79
2022/08/16 11:55:00;;;;;;;2.40;1.80;;;;;;;;;;4985564;28;20023;-81
2022/08/16 11:57:26;;;;;;;5.55;2.38;;;;;;;;;;4990775;28;20026;-79
2022/08/16 11:59:52;;;;;;;3.83;2.10;;;;;;;;;;4988674;28;20046;-77
2022/08/16 12:02:19;;;;;;;2.38;1.92;;;;;;;;;;4987966;28;20077;-77
2022/08/16 12:04:45;;;;;;;2.10;1.70;;;;;;;;;;4986447;28;20469;-78
2022/08/16 12:07:12;;;;;;;2.95;1.95;;;;;;;;;;4988510;28;20027;-78
2022/08/16 12:09:38;;;;;;;3.10;1.92;;;;;;;;;;4987792;28;20097;-77
2022/08/16 12:12:06;;;;;;;3.05;1.80;;;;;;;;;;4986201;28;20081;-76
2022/08/16 12:14:33;;;;;;;2.67;1.95;;;;;;;;;;4990884;28;20023;-82
2022/08/16 12:17:01;;;;;;;4.03;1.85;;;;;;;;;;4997025;28;20034;-77
2022/08/16 12:19:27;;;;;;;4.32;2.00;;;;;;;;;;4989487;28;20026;-77
2022/08/16 12:21:53;;;;;;;3.80;2.03;;;;;;;;;;4990059;28;20058;-78
2022/08/16 12:24:20;;;;;;;5.25;2.00;;;;;;;;;;4974596;28;20031;-77
2022/08/16 12:29:53;;;;;;;3.35;2.40;;;;;;;;;;4983726;28;20074;-76
2022/08/16 12:32:19;;;;;;;3.53;2.72;;;;;;;;;;5007358;28;20026;-77
2022/08/16 12:34:46;;;;;;;2.90;1.90;;;;;;;;;;5001570;28;20027;-77
2022/08/16 12:37:14;;;;;;;3.45;1.85;;;;;;;;;;5012071;28;20407;-77
2022/08/16 12:39:40;;;;;;;2.65;1.95;;;;;;;;;;4990066;28;20074;-77
2022/08/16 12:42:08;;;;;;;3.83;2.13;;;;;;;;;;4981748;28;20032;-74
2022/08/16 12:44:35;;;;;;;3.40;2.10;;;;;;;;;;4989774;28;20118;-76
2022/08/16 12:49:47;;;;;;;2.78;2.10;;;;;;;;;;4983301;28;20030;-75
2022/08/16 12:52:13;;;;;;;4.32;2.13;;;;;;;;;;4993601;28;20018;-74
2022/08/16 12:54:40;;;;;;;3.42;2.00;;;;;;;;;;4988052;28;20027;-74
2022/08/16 12:57:09;;;;;;;2.75;2.05;;;;;;;;;;4998766;28;20022;-77
2022/08/16 12:59:35;;;;;;;4.55;1.80;;;;;;;;;;4992806;28;20027;-77
2022/08/16 13:02:02;;;;;;;3.00;1.90;;;;;;;;;;4994066;28;20051;-77
2022/08/16 13:04:29;;;;;;;1.83;1.63;;;;;;;;;;4990055;28;20061;-75
2022/08/16 13:06:58;;;;;;;3.63;2.05;;;;;;;;;;4989191;28;20461;-75
2022/08/16 13:09:24;;;;;;;4.80;1.65;;;;;;;;;;4990414;28;20047;-76
2022/08/16 13:12:06;;;;;;;3.80;2.10;;;;;;;;;;4985915;28;20035;-77
2022/08/16 13:14:35;;;;;;;3.33;2.28;;;;;;;;;;4985383;28;20023;-75
2022/08/16 13:17:02;;;;;;;2.33;1.75;;;;;;;;;;4985770;28;20030;-75
2022/08/16 13:19:28;;;;;;;2.97;2.10;;;;;;;;;;4988243;28;20023;-79
2022/08/16 13:21:54;;;;;;;2.60;1.90;;;;;;;;;;4991013;28;20033;-76
2022/08/16 13:24:20;;;;;;;2.47;1.60;;;;;;;;;;4987028;28;20022;-79
2022/08/16 13:26:46;;;;;;;5.90;2.17;;;;;;;;;;5000370;28;20027;-75
2022/08/16 13:29:12;;;;;;;5.13;2.35;;;;;;;;;;4987425;28;20031;-77
2022/08/16 13:31:38;;;;;;;3.15;1.90;;;;;;;;;;4988985;28;20042;-76
2022/08/16 13:34:05;;;;;;;3.05;2.20;;;;;;;;;;5000333;28;20034;-77
2022/08/16 13:36:34;;;;;;;3.78;2.10;;;;;;;;;;4995049;28;20031;-78
2022/08/16 13:39:00;;;;;;;3.03;1.67;;;;;;;;;;4991650;28;20083;-77
2022/08/16 13:41:26;;;;;;;3.13;1.90;;;;;;;;;;4997325;28;20019;-75
2022/08/16 13:43:53;;;;;;;3.13;2.45;;;;;;;;;;4992774;28;20058;-74
2022/08/16 13:46:19;;;;;;;4.70;2.42;;;;;;;;;;4991372;28;20057;-78
2022/08/16 13:48:46;;;;;;;2.28;2.08;;;;;;;;;;4988872;28;20023;-78
2022/08/16 13:51:15;;;;;;;4.95;2.17;;;;;;;;;;4988890;28;20083;-76
2022/08/16 13:53:41;;;;;;;4.00;1.70;;;;;;;;;;4981017;28;20026;-77
2022/08/16 13:56:08;;;;;;;2.20;2.00;;;;;;;;;;4986717;28;20023;-75
2022/08/16 13:58:34;;;;;;;5.25;2.03;;;;;;;;;;4987755;28;20069;-79
2022/08/16 14:01:02;;;;;;;4.93;1.95;;;;;;;;;;5010956;28;20141;-75
2022/08/16 14:03:28;;;;;;;3.83;1.90;;;;;;;;;;4992280;28;20163;-79
2022/08/16 14:05:54;;;;;;;4.00;2.35;;;;;;;;;;4986240;28;20034;-79
2022/08/16 14:08:20;;;;;;;3.50;2.50;;;;;;;;;;4990669;28;20034;-77
2022/08/16 14:10:46;;;;;;;3.63;2.03;;;;;;;;;;4989719;28;20050;-77
2022/08/16 14:13:12;;;;;;;5.30;2.05;;;;;;;;;;4986349;28;20018;-77
2022/08/16 14:15:38;;;;;;;3.90;2.30;;;;;;;;;;4995564;28;20046;-77
2022/08/16 14:18:04;;;;;;;3.40;2.05;;;;;;;;;;5000716;28;20034;-79
2022/08/16 14:20:30;;;;;;;3.83;1.88;;;;;;;;;;4988704;28;20026;-77
2022/08/16 14:22:56;;;;;;;3.00;1.90;;;;;;;;;;4985456;28;20038;-79
2022/08/16 14:25:23;;;;;;;3.53;2.20;;;;;;;;;;5003233;28;20101;-77
2022/08/16 14:27:49;;;;;;;4.55;2.33;;;;;;;;;;4979690;28;20023;-79
2022/08/16 14:30:18;;;;;;;3.40;2.10;;;;;;;;;;4984347;28;20027;-76
2022/08/16 14:32:44;;;;;;;5.93;3.10;;;;;;;;;;4978578;28;20334;-80
2022/08/16 14:35:13;;;;;;;3.80;2.00;;;;;;;;;;4976796;28;20030;-79
2022/08/16 14:37:40;;;;;;;3.10;2.25;;;;;;;;;;4982641;28;20023;-80
2022/08/16 14:40:09;;;;;;;4.13;2.05;;;;;;;;;;4975060;28;20077;-80
2022/08/16 14:42:35;;;;;;;6.22;2.30;;;;;;;;;;4975098;28;20418;-78
2022/08/16 14:45:01;;;;;;;3.42;2.05;;;;;;;;;;4979446;28;20446;-79
2022/08/16 14:47:28;;;;;;;2.95;2.03;;;;;;;;;;4969635;28;20109;-79
2022/08/16 14:49:54;;;;;;;4.57;2.00;;;;;;;;;;4974049;28;20505;-79
2022/08/16 14:52:21;;;;;;;3.00;2.22;;;;;;;;;;4974446;28;20493;-75